sensor_id;sensor_type;location;lat;lon;timestamp;P1;durP1;ratioP1;P2;durP2;ratioP2
80623;SDS011;70269;44.768;9.600;2023-06-14T00:00:39;4.45;;;1.98;;
80623;SDS011;70269;44.768;9.600;2023-06-14T00:03:08;4.93;;;1.67;;
80623;SDS011;70269;44.768;9.600;2023-06-14T00:05:35;4.97;;;1.73;;
80623;SDS011;70269;44.768;9.600;2023-06-14T00:08:06;3.78;;;2.03;;
80623;SDS011;70269;44.768;9.600;2023-06-14T00:10:35;5.85;;;1.83;;
80623;SDS011;70269;44.768;9.600;2023-06-14T00:13:01;3.40;;;1.80;;
80623;SDS011;70269;44.768;9.600;2023-06-14T00:15:28;5.25;;;1.65;;
80623;SDS011;70269;44.768;9.600;2023-06-14T00:17:53;3.95;;;1.50;;
80623;SDS011;70269;44.768;9.600;2023-06-14T00:20:20;4.45;;;1.73;;
80623;SDS011;70269;44.768;9.600;2023-06-14T00:22:45;5.40;;;1.83;;
80623;SDS011;70269;44.768;9.600;2023-06-14T00:25:11;3.30;;;1.52;;
80623;SDS011;70269;44.768;9.600;2023-06-14T00:27:37;3.22;;;1.70;;
80623;SDS011;70269;44.768;9.600;2023-06-14T00:30:03;6.78;;;2.03;;
80623;SDS011;70269;44.768;9.600;2023-06-14T00:32:29;5.35;;;1.60;;
80623;SDS011;70269;44.768;9.600;2023-06-14T00:34:55;8.20;;;2.85;;
80623;SDS011;70269;44.768;9.600;2023-06-14T00:37:20;4.57;;;1.70;;
80623;SDS011;70269;44.768;9.600;2023-06-14T00:39:46;4.97;;;1.80;;
80623;SDS011;70269;44.768;9.600;2023-06-14T00:42:22;5.32;;;1.55;;
80623;SDS011;70269;44.768;9.600;2023-06-14T00:44:49;4.13;;;1.77;;
80623;SDS011;70269;44.768;9.600;2023-06-14T00:47:15;3.63;;;1.77;;
80623;SDS011;70269;44.768;9.600;2023-06-14T00:49:40;4.70;;;1.58;;
80623;SDS011;70269;44.768;9.600;2023-06-14T00:52:06;6.55;;;2.00;;
80623;SDS011;70269;44.768;9.600;2023-06-14T00:54:32;7.22;;;1.80;;
80623;SDS011;70269;44.768;9.600;2023-06-14T00:56:58;7.13;;;1.67;;
80623;SDS011;70269;44.768;9.600;2023-06-14T00:59:23;5.30;;;1.75;;
80623;SDS011;70269;44.768;9.600;2023-06-14T01:01:50;3.83;;;1.70;;
80623;SDS011;70269;44.768;9.600;2023-06-14T01:04:15;9.55;;;2.00;;
80623;SDS011;70269;44.768;9.600;2023-06-14T01:15:20;4.60;;;2.58;;
80623;SDS011;70269;44.768;9.600;2023-06-14T01:17:46;4.47;;;1.80;;
80623;SDS011;70269;44.768;9.600;2023-06-14T01:20:17;3.97;;;1.83;;
80623;SDS011;70269;44.768;9.600;2023-06-14T01:22:55;4.25;;;1.90;;
80623;SDS011;70269;44.768;9.600;2023-06-14T01:27:51;8.63;;;1.83;;
80623;SDS011;70269;44.768;9.600;2023-06-14T01:30:18;7.95;;;2.60;;
80623;SDS011;70269;44.768;9.600;2023-06-14T01:32:46;5.20;;;2.15;;
80623;SDS011;70269;44.768;9.600;2023-06-14T01:35:13;5.60;;;2.10;;
80623;SDS011;70269;44.768;9.600;2023-06-14T01:37:39;3.88;;;1.83;;
80623;SDS011;70269;44.768;9.600;2023-06-14T01:40:06;5.25;;;1.63;;
80623;SDS011;70269;44.768;9.600;2023-06-14T01:42:35;5.65;;;2.00;;
80623;SDS011;70269;44.768;9.600;2023-06-14T01:45:03;4.13;;;1.75;;
80623;SDS011;70269;44.768;9.600;2023-06-14T01:47:31;5.05;;;2.35;;
80623;SDS011;70269;44.768;9.600;2023-06-14T01:49:57;6.05;;;1.67;;
80623;SDS011;70269;44.768;9.600;2023-06-14T01:52:22;5.07;;;2.00;;
80623;SDS011;70269;44.768;9.600;2023-06-14T01:54:49;4.35;;;2.10;;
80623;SDS011;70269;44.768;9.600;2023-06-14T01:57:15;4.30;;;1.88;;
80623;SDS011;70269;44.768;9.600;2023-06-14T01:59:41;5.50;;;1.90;;
80623;SDS011;70269;44.768;9.600;2023-06-14T02:02:07;3.50;;;1.80;;
80623;SDS011;70269;44.768;9.600;2023-06-14T02:04:33;4.25;;;1.80;;
80623;SDS011;70269;44.768;9.600;2023-06-14T02:06:59;4.47;;;1.63;;
80623;SDS011;70269;44.768;9.600;2023-06-14T02:09:25;3.60;;;1.50;;
80623;SDS011;70269;44.768;9.600;2023-06-14T02:11:53;5.45;;;1.85;;
80623;SDS011;70269;44.768;9.600;2023-06-14T02:14:19;4.10;;;1.63;;
80623;SDS011;70269;44.768;9.600;2023-06-14T02:16:45;6.30;;;1.90;;
80623;SDS011;70269;44.768;9.600;2023-06-14T02:19:17;3.97;;;1.90;;
80623;SDS011;70269;44.768;9.600;2023-06-14T02:21:43;5.00;;;1.60;;
80623;SDS011;70269;44.768;9.600;2023-06-14T02:24:11;4.28;;;1.65;;
80623;SDS011;70269;44.768;9.600;2023-06-14T02:26:38;4.28;;;2.08;;
80623;SDS011;70269;44.768;9.600;2023-06-14T02:29:07;5.15;;;1.90;;
80623;SDS011;70269;44.768;9.600;2023-06-14T02:31:35;4.30;;;1.65;;
80623;SDS011;70269;44.768;9.600;2023-06-14T02:34:01;4.13;;;1.85;;
80623;SDS011;70269;44.768;9.600;2023-06-14T02:36:26;5.55;;;2.17;;
80623;SDS011;70269;44.768;9.600;2023-06-14T02:38:54;3.10;;;1.50;;
80623;SDS011;70269;44.768;9.600;2023-06-14T02:41:24;4.18;;;1.67;;
80623;SDS011;70269;44.768;9.600;2023-06-14T02:43:52;5.35;;;1.90;;
80623;SDS011;70269;44.768;9.600;2023-06-14T02:46:18;5.47;;;2.05;;
80623;SDS011;70269;44.768;9.600;2023-06-14T02:48:44;5.47;;;1.85;;
80623;SDS011;70269;44.768;9.600;2023-06-14T02:51:10;5.53;;;1.70;;
80623;SDS011;70269;44.768;9.600;2023-06-14T02:53:36;3.90;;;1.50;;
80623;SDS011;70269;44.768;9.600;2023-06-14T02:56:02;5.13;;;1.70;;
80623;SDS011;70269;44.768;9.600;2023-06-14T02:58:29;6.53;;;1.90;;
80623;SDS011;70269;44.768;9.600;2023-06-14T03:00:55;4.32;;;1.77;;
80623;SDS011;70269;44.768;9.600;2023-06-14T03:03:21;4.35;;;1.38;;
80623;SDS011;70269;44.768;9.600;2023-06-14T03:05:52;5.05;;;1.40;;
80623;SDS011;70269;44.768;9.600;2023-06-14T03:08:23;4.88;;;1.73;;
80623;SDS011;70269;44.768;9.600;2023-06-14T03:10:53;6.10;;;1.77;;
80623;SDS011;70269;44.768;9.600;2023-06-14T03:13:21;5.43;;;1.90;;
80623;SDS011;70269;44.768;9.600;2023-06-14T03:15:49;3.47;;;1.75;;
80623;SDS011;70269;44.768;9.600;2023-06-14T03:18:18;4.22;;;1.73;;
80623;SDS011;70269;44.768;9.600;2023-06-14T03:20:45;3.08;;;1.50;;
80623;SDS011;70269;44.768;9.600;2023-06-14T03:23:12;4.75;;;1.98;;
80623;SDS011;70269;44.768;9.600;2023-06-14T03:25:38;4.88;;;2.47;;
80623;SDS011;70269;44.768;9.600;2023-06-14T03:28:07;3.05;;;1.75;;
80623;SDS011;70269;44.768;9.600;2023-06-14T03:30:34;4.20;;;2.03;;
80623;SDS011;70269;44.768;9.600;2023-06-14T03:33:00;5.13;;;1.67;;
80623;SDS011;70269;44.768;9.600;2023-06-14T03:35:30;5.10;;;1.50;;
80623;SDS011;70269;44.768;9.600;2023-06-14T03:37:56;4.85;;;1.85;;
80623;SDS011;70269;44.768;9.600;2023-06-14T03:40:23;7.60;;;2.10;;
80623;SDS011;70269;44.768;9.600;2023-06-14T03:42:57;3.78;;;1.88;;
80623;SDS011;70269;44.768;9.600;2023-06-14T03:45:23;7.55;;;1.77;;
80623;SDS011;70269;44.768;9.600;2023-06-14T03:47:48;3.60;;;1.70;;
80623;SDS011;70269;44.768;9.600;2023-06-14T03:50:14;6.97;;;2.40;;
80623;SDS011;70269;44.768;9.600;2023-06-14T03:52:40;3.80;;;1.83;;
80623;SDS011;70269;44.768;9.600;2023-06-14T03:55:08;4.40;;;1.67;;
80623;SDS011;70269;44.768;9.600;2023-06-14T03:57:35;4.90;;;1.80;;
80623;SDS011;70269;44.768;9.600;2023-06-14T04:00:04;5.43;;;1.60;;
80623;SDS011;70269;44.768;9.600;2023-06-14T04:02:39;3.15;;;1.60;;
80623;SDS011;70269;44.768;9.600;2023-06-14T04:05:06;5.00;;;1.70;;
80623;SDS011;70269;44.768;9.600;2023-06-14T04:07:35;2.95;;;1.52;;
80623;SDS011;70269;44.768;9.600;2023-06-14T04:12:39;5.63;;;1.90;;
80623;SDS011;70269;44.768;9.600;2023-06-14T04:15:05;6.60;;;1.80;;
80623;SDS011;70269;44.768;9.600;2023-06-14T04:17:32;5.47;;;1.67;;
80623;SDS011;70269;44.768;9.600;2023-06-14T04:19:58;4.78;;;1.67;;
80623;SDS011;70269;44.768;9.600;2023-06-14T04:22:25;3.15;;;1.48;;
80623;SDS011;70269;44.768;9.600;2023-06-14T04:24:55;5.53;;;1.55;;
80623;SDS011;70269;44.768;9.600;2023-06-14T04:27:28;3.13;;;1.65;;
80623;SDS011;70269;44.768;9.600;2023-06-14T04:29:58;3.60;;;1.70;;
80623;SDS011;70269;44.768;9.600;2023-06-14T04:32:32;3.75;;;1.58;;
80623;SDS011;70269;44.768;9.600;2023-06-14T04:34:59;4.70;;;1.80;;
80623;SDS011;70269;44.768;9.600;2023-06-14T04:37:29;4.75;;;1.50;;
80623;SDS011;70269;44.768;9.600;2023-06-14T04:39:56;4.68;;;1.88;;
80623;SDS011;70269;44.768;9.600;2023-06-14T04:42:22;3.42;;;1.52;;
80623;SDS011;70269;44.768;9.600;2023-06-14T04:44:51;4.85;;;1.55;;
80623;SDS011;70269;44.768;9.600;2023-06-14T04:47:21;4.75;;;1.60;;
80623;SDS011;70269;44.768;9.600;2023-06-14T04:49:46;5.35;;;1.90;;
80623;SDS011;70269;44.768;9.600;2023-06-14T04:52:12;2.97;;;1.50;;
80623;SDS011;70269;44.768;9.600;2023-06-14T04:54:40;3.85;;;1.70;;
80623;SDS011;70269;44.768;9.600;2023-06-14T04:57:08;5.57;;;1.90;;
80623;SDS011;70269;44.768;9.600;2023-06-14T04:59:40;6.68;;;2.30;;
80623;SDS011;70269;44.768;9.600;2023-06-14T05:02:06;3.55;;;1.50;;
80623;SDS011;70269;44.768;9.600;2023-06-14T05:04:34;5.57;;;1.58;;
80623;SDS011;70269;44.768;9.600;2023-06-14T05:06:59;5.35;;;1.85;;
80623;SDS011;70269;44.768;9.600;2023-06-14T05:09:27;3.15;;;1.33;;
80623;SDS011;70269;44.768;9.600;2023-06-14T05:11:53;5.05;;;1.60;;
80623;SDS011;70269;44.768;9.600;2023-06-14T05:14:19;5.53;;;1.50;;
80623;SDS011;70269;44.768;9.600;2023-06-14T05:16:45;4.10;;;1.83;;
80623;SDS011;70269;44.768;9.600;2023-06-14T05:19:13;7.45;;;3.20;;
80623;SDS011;70269;44.768;9.600;2023-06-14T05:21:39;5.22;;;1.90;;
80623;SDS011;70269;44.768;9.600;2023-06-14T05:24:05;4.35;;;2.05;;
80623;SDS011;70269;44.768;9.600;2023-06-14T05:26:30;5.82;;;2.35;;
80623;SDS011;70269;44.768;9.600;2023-06-14T05:28:57;6.00;;;2.30;;
80623;SDS011;70269;44.768;9.600;2023-06-14T05:31:23;4.13;;;1.90;;
80623;SDS011;70269;44.768;9.600;2023-06-14T05:33:51;4.70;;;1.48;;
80623;SDS011;70269;44.768;9.600;2023-06-14T05:36:16;3.95;;;1.70;;
80623;SDS011;70269;44.768;9.600;2023-06-14T05:38:42;3.35;;;1.58;;
80623;SDS011;70269;44.768;9.600;2023-06-14T05:41:08;4.70;;;1.75;;
80623;SDS011;70269;44.768;9.600;2023-06-14T05:43:33;3.70;;;1.73;;
80623;SDS011;70269;44.768;9.600;2023-06-14T05:45:59;4.75;;;1.70;;
80623;SDS011;70269;44.768;9.600;2023-06-14T05:48:25;4.75;;;2.03;;
80623;SDS011;70269;44.768;9.600;2023-06-14T05:50:50;6.20;;;1.90;;
80623;SDS011;70269;44.768;9.600;2023-06-14T05:53:16;4.07;;;1.40;;
80623;SDS011;70269;44.768;9.600;2023-06-14T05:55:42;4.97;;;2.03;;
80623;SDS011;70269;44.768;9.600;2023-06-14T05:58:07;4.18;;;1.85;;
80623;SDS011;70269;44.768;9.600;2023-06-14T06:00:33;3.88;;;1.70;;
80623;SDS011;70269;44.768;9.600;2023-06-14T06:02:58;3.47;;;1.52;;
80623;SDS011;70269;44.768;9.600;2023-06-14T06:05:24;3.95;;;1.92;;
80623;SDS011;70269;44.768;9.600;2023-06-14T06:07:50;3.28;;;1.40;;
80623;SDS011;70269;44.768;9.600;2023-06-14T06:10:17;3.88;;;2.10;;
80623;SDS011;70269;44.768;9.600;2023-06-14T06:12:43;4.88;;;1.92;;
80623;SDS011;70269;44.768;9.600;2023-06-14T06:15:09;3.72;;;1.83;;
80623;SDS011;70269;44.768;9.600;2023-06-14T06:17:38;4.60;;;1.65;;
80623;SDS011;70269;44.768;9.600;2023-06-14T06:20:05;3.17;;;1.50;;
80623;SDS011;70269;44.768;9.600;2023-06-14T06:22:33;3.58;;;1.58;;
80623;SDS011;70269;44.768;9.600;2023-06-14T06:25:00;4.13;;;1.55;;
80623;SDS011;70269;44.768;9.600;2023-06-14T06:27:25;3.35;;;1.60;;
80623;SDS011;70269;44.768;9.600;2023-06-14T06:29:51;3.78;;;2.15;;
80623;SDS011;70269;44.768;9.600;2023-06-14T06:32:17;5.55;;;2.58;;
80623;SDS011;70269;44.768;9.600;2023-06-14T06:34:43;3.50;;;1.85;;
80623;SDS011;70269;44.768;9.600;2023-06-14T06:37:08;4.75;;;2.25;;
80623;SDS011;70269;44.768;9.600;2023-06-14T06:39:34;5.95;;;3.30;;
80623;SDS011;70269;44.768;9.600;2023-06-14T06:42:00;5.95;;;2.75;;
80623;SDS011;70269;44.768;9.600;2023-06-14T06:44:32;5.88;;;3.17;;
80623;SDS011;70269;44.768;9.600;2023-06-14T06:46:58;6.70;;;3.33;;
80623;SDS011;70269;44.768;9.600;2023-06-14T06:49:23;7.82;;;3.60;;
80623;SDS011;70269;44.768;9.600;2023-06-14T06:51:59;5.80;;;2.92;;
80623;SDS011;70269;44.768;9.600;2023-06-14T06:54:28;7.22;;;3.60;;
80623;SDS011;70269;44.768;9.600;2023-06-14T06:56:54;8.70;;;4.45;;
80623;SDS011;70269;44.768;9.600;2023-06-14T06:59:20;9.52;;;4.90;;
80623;SDS011;70269;44.768;9.600;2023-06-14T07:01:46;7.97;;;4.05;;
80623;SDS011;70269;44.768;9.600;2023-06-14T07:04:12;7.75;;;4.60;;
80623;SDS011;70269;44.768;9.600;2023-06-14T07:06:37;8.55;;;5.20;;
80623;SDS011;70269;44.768;9.600;2023-06-14T07:09:03;9.85;;;5.15;;
80623;SDS011;70269;44.768;9.600;2023-06-14T07:11:31;10.32;;;5.57;;
80623;SDS011;70269;44.768;9.600;2023-06-14T07:13:57;7.28;;;4.38;;
80623;SDS011;70269;44.768;9.600;2023-06-14T07:16:22;11.20;;;5.75;;
80623;SDS011;70269;44.768;9.600;2023-06-14T07:18:48;11.70;;;6.47;;
80623;SDS011;70269;44.768;9.600;2023-06-14T07:21:14;14.77;;;6.45;;
80623;SDS011;70269;44.768;9.600;2023-06-14T07:23:39;11.10;;;6.05;;
80623;SDS011;70269;44.768;9.600;2023-06-14T07:26:06;12.23;;;6.38;;
80623;SDS011;70269;44.768;9.600;2023-06-14T07:28:31;10.57;;;6.55;;
80623;SDS011;70269;44.768;9.600;2023-06-14T07:30:57;10.35;;;6.07;;
80623;SDS011;70269;44.768;9.600;2023-06-14T07:33:22;11.10;;;5.97;;
80623;SDS011;70269;44.768;9.600;2023-06-14T07:35:48;10.95;;;6.68;;
80623;SDS011;70269;44.768;9.600;2023-06-14T07:38:14;11.80;;;6.35;;
80623;SDS011;70269;44.768;9.600;2023-06-14T07:40:40;10.30;;;5.65;;
80623;SDS011;70269;44.768;9.600;2023-06-14T07:43:05;11.93;;;5.53;;
80623;SDS011;70269;44.768;9.600;2023-06-14T07:45:31;10.23;;;5.47;;
80623;SDS011;70269;44.768;9.600;2023-06-14T07:47:57;9.60;;;5.65;;
80623;SDS011;70269;44.768;9.600;2023-06-14T07:50:22;9.38;;;5.38;;
80623;SDS011;70269;44.768;9.600;2023-06-14T07:52:48;9.55;;;5.60;;
80623;SDS011;70269;44.768;9.600;2023-06-14T07:55:14;9.57;;;5.88;;
80623;SDS011;70269;44.768;9.600;2023-06-14T07:57:40;8.02;;;5.05;;
80623;SDS011;70269;44.768;9.600;2023-06-14T08:00:06;9.18;;;5.55;;
80623;SDS011;70269;44.768;9.600;2023-06-14T08:02:37;8.45;;;5.18;;
80623;SDS011;70269;44.768;9.600;2023-06-14T08:05:02;7.05;;;4.72;;
80623;SDS011;70269;44.768;9.600;2023-06-14T08:07:28;8.10;;;5.50;;
80623;SDS011;70269;44.768;9.600;2023-06-14T08:09:54;8.23;;;5.18;;
80623;SDS011;70269;44.768;9.600;2023-06-14T08:12:19;8.88;;;4.38;;
80623;SDS011;70269;44.768;9.600;2023-06-14T08:14:45;8.38;;;5.03;;
80623;SDS011;70269;44.768;9.600;2023-06-14T08:17:10;11.20;;;5.45;;
80623;SDS011;70269;44.768;9.600;2023-06-14T08:19:36;8.45;;;4.80;;
80623;SDS011;70269;44.768;9.600;2023-06-14T08:22:01;7.18;;;4.63;;
80623;SDS011;70269;44.768;9.600;2023-06-14T08:24:28;7.10;;;4.72;;
80623;SDS011;70269;44.768;9.600;2023-06-14T08:26:54;8.20;;;4.38;;
80623;SDS011;70269;44.768;9.600;2023-06-14T08:29:20;8.20;;;4.75;;
80623;SDS011;70269;44.768;9.600;2023-06-14T08:31:46;8.18;;;5.05;;
80623;SDS011;70269;44.768;9.600;2023-06-14T08:34:12;7.22;;;4.45;;
80623;SDS011;70269;44.768;9.600;2023-06-14T08:36:37;7.60;;;4.78;;
80623;SDS011;70269;44.768;9.600;2023-06-14T08:39:03;8.18;;;4.25;;
80623;SDS011;70269;44.768;9.600;2023-06-14T08:41:29;7.28;;;3.83;;
80623;SDS011;70269;44.768;9.600;2023-06-14T08:43:55;8.70;;;4.55;;
80623;SDS011;70269;44.768;9.600;2023-06-14T08:46:21;8.25;;;4.60;;
80623;SDS011;70269;44.768;9.600;2023-06-14T08:48:52;9.45;;;4.70;;
80623;SDS011;70269;44.768;9.600;2023-06-14T08:51:22;7.32;;;4.22;;
80623;SDS011;70269;44.768;9.600;2023-06-14T08:53:52;8.52;;;5.05;;
80623;SDS011;70269;44.768;9.600;2023-06-14T08:56:26;9.20;;;4.60;;
80623;SDS011;70269;44.768;9.600;2023-06-14T08:58:55;7.32;;;4.80;;
80623;SDS011;70269;44.768;9.600;2023-06-14T09:01:26;8.13;;;4.90;;
80623;SDS011;70269;44.768;9.600;2023-06-14T09:03:52;9.05;;;5.15;;
80623;SDS011;70269;44.768;9.600;2023-06-14T09:06:20;8.27;;;4.63;;
80623;SDS011;70269;44.768;9.600;2023-06-14T09:08:48;8.75;;;5.05;;
80623;SDS011;70269;44.768;9.600;2023-06-14T09:11:16;8.40;;;4.93;;
80623;SDS011;70269;44.768;9.600;2023-06-14T09:13:44;11.25;;;5.82;;
80623;SDS011;70269;44.768;9.600;2023-06-14T09:16:11;8.77;;;5.75;;
80623;SDS011;70269;44.768;9.600;2023-06-14T09:21:08;8.88;;;5.68;;
80623;SDS011;70269;44.768;9.600;2023-06-14T09:23:55;9.88;;;6.30;;
80623;SDS011;70269;44.768;9.600;2023-06-14T09:26:27;9.23;;;5.82;;
80623;SDS011;70269;44.768;9.600;2023-06-14T09:29:06;10.02;;;5.75;;
80623;SDS011;70269;44.768;9.600;2023-06-14T09:31:32;8.63;;;5.85;;
80623;SDS011;70269;44.768;9.600;2023-06-14T09:33:58;10.02;;;5.72;;
80623;SDS011;70269;44.768;9.600;2023-06-14T09:36:27;13.73;;;6.35;;
80623;SDS011;70269;44.768;9.600;2023-06-14T09:38:53;10.25;;;6.10;;
80623;SDS011;70269;44.768;9.600;2023-06-14T09:41:19;10.98;;;7.10;;
80623;SDS011;70269;44.768;9.600;2023-06-14T09:43:46;10.52;;;6.80;;
80623;SDS011;70269;44.768;9.600;2023-06-14T09:46:12;12.52;;;8.02;;
80623;SDS011;70269;44.768;9.600;2023-06-14T09:48:38;12.88;;;8.35;;
80623;SDS011;70269;44.768;9.600;2023-06-14T09:51:09;16.65;;;9.45;;
80623;SDS011;70269;44.768;9.600;2023-06-14T09:53:39;13.98;;;9.45;;
80623;SDS011;70269;44.768;9.600;2023-06-14T09:56:08;16.35;;;10.57;;
80623;SDS011;70269;44.768;9.600;2023-06-14T09:58:35;15.82;;;10.02;;
80623;SDS011;70269;44.768;9.600;2023-06-14T10:01:04;16.10;;;11.00;;
80623;SDS011;70269;44.768;9.600;2023-06-14T10:03:33;16.15;;;9.95;;
80623;SDS011;70269;44.768;9.600;2023-06-14T10:06:01;18.00;;;11.95;;
80623;SDS011;70269;44.768;9.600;2023-06-14T10:08:32;20.13;;;12.27;;
80623;SDS011;70269;44.768;9.600;2023-06-14T10:11:02;18.95;;;10.65;;
80623;SDS011;70269;44.768;9.600;2023-06-14T10:13:28;13.45;;;9.02;;
80623;SDS011;70269;44.768;9.600;2023-06-14T10:18:49;14.90;;;9.65;;
80623;SDS011;70269;44.768;9.600;2023-06-14T10:24:15;14.93;;;9.38;;
80623;SDS011;70269;44.768;9.600;2023-06-14T10:26:57;14.23;;;9.55;;
80623;SDS011;70269;44.768;9.600;2023-06-14T10:29:24;12.02;;;7.82;;
80623;SDS011;70269;44.768;9.600;2023-06-14T10:31:55;11.70;;;8.20;;
80623;SDS011;70269;44.768;9.600;2023-06-14T10:34:22;12.50;;;8.93;;
80623;SDS011;70269;44.768;9.600;2023-06-14T10:36:59;13.10;;;9.32;;
80623;SDS011;70269;44.768;9.600;2023-06-14T10:39:28;15.10;;;10.50;;
80623;SDS011;70269;44.768;9.600;2023-06-14T10:41:55;13.80;;;9.35;;
80623;SDS011;70269;44.768;9.600;2023-06-14T10:46:47;16.05;;;10.38;;
80623;SDS011;70269;44.768;9.600;2023-06-14T10:49:20;14.18;;;9.75;;
80623;SDS011;70269;44.768;9.600;2023-06-14T10:52:02;13.70;;;9.80;;
80623;SDS011;70269;44.768;9.600;2023-06-14T10:54:28;14.02;;;11.13;;
80623;SDS011;70269;44.768;9.600;2023-06-14T10:56:53;17.45;;;12.38;;
80623;SDS011;70269;44.768;9.600;2023-06-14T10:59:20;17.00;;;12.85;;
80623;SDS011;70269;44.768;9.600;2023-06-14T11:12:27;17.90;;;12.45;;
80623;SDS011;70269;44.768;9.600;2023-06-14T11:14:56;21.52;;;13.20;;
80623;SDS011;70269;44.768;9.600;2023-06-14T11:17:22;18.65;;;13.57;;
80623;SDS011;70269;44.768;9.600;2023-06-14T11:19:48;17.52;;;12.88;;
80623;SDS011;70269;44.768;9.600;2023-06-14T11:22:13;18.25;;;12.52;;
80623;SDS011;70269;44.768;9.600;2023-06-14T11:24:40;16.58;;;12.70;;
80623;SDS011;70269;44.768;9.600;2023-06-14T11:27:05;17.95;;;11.93;;
80623;SDS011;70269;44.768;9.600;2023-06-14T11:29:31;17.52;;;12.90;;
80623;SDS011;70269;44.768;9.600;2023-06-14T11:31:57;17.10;;;12.70;;
80623;SDS011;70269;44.768;9.600;2023-06-14T11:34:22;18.05;;;12.98;;
80623;SDS011;70269;44.768;9.600;2023-06-14T11:36:48;18.75;;;12.70;;
80623;SDS011;70269;44.768;9.600;2023-06-14T11:39:13;17.70;;;12.73;;
80623;SDS011;70269;44.768;9.600;2023-06-14T11:41:40;17.77;;;12.82;;
80623;SDS011;70269;44.768;9.600;2023-06-14T11:44:08;19.60;;;13.43;;
80623;SDS011;70269;44.768;9.600;2023-06-14T11:46:34;18.70;;;13.27;;
80623;SDS011;70269;44.768;9.600;2023-06-14T11:49:00;21.10;;;13.88;;
80623;SDS011;70269;44.768;9.600;2023-06-14T11:51:35;21.33;;;14.05;;
80623;SDS011;70269;44.768;9.600;2023-06-14T11:54:01;20.60;;;14.13;;
80623;SDS011;70269;44.768;9.600;2023-06-14T11:56:28;25.45;;;15.18;;
80623;SDS011;70269;44.768;9.600;2023-06-14T11:58:54;21.67;;;14.75;;
80623;SDS011;70269;44.768;9.600;2023-06-14T12:01:23;20.58;;;14.48;;
80623;SDS011;70269;44.768;9.600;2023-06-14T12:03:52;16.17;;;11.95;;
80623;SDS011;70269;44.768;9.600;2023-06-14T12:06:25;16.75;;;13.02;;
80623;SDS011;70269;44.768;9.600;2023-06-14T12:08:58;17.27;;;12.18;;
80623;SDS011;70269;44.768;9.600;2023-06-14T12:11:27;17.80;;;11.18;;
80623;SDS011;70269;44.768;9.600;2023-06-14T12:13:57;15.07;;;10.40;;
80623;SDS011;70269;44.768;9.600;2023-06-14T12:16:22;15.90;;;10.20;;
80623;SDS011;70269;44.768;9.600;2023-06-14T12:21:25;16.45;;;9.95;;
80623;SDS011;70269;44.768;9.600;2023-06-14T12:23:53;16.38;;;10.25;;
80623;SDS011;70269;44.768;9.600;2023-06-14T12:26:19;13.45;;;9.70;;
80623;SDS011;70269;44.768;9.600;2023-06-14T12:28:46;15.07;;;9.77;;
80623;SDS011;70269;44.768;9.600;2023-06-14T12:31:13;15.18;;;9.27;;
80623;SDS011;70269;44.768;9.600;2023-06-14T12:33:39;13.55;;;8.73;;
80623;SDS011;70269;44.768;9.600;2023-06-14T12:36:06;11.77;;;9.07;;
80623;SDS011;70269;44.768;9.600;2023-06-14T12:38:33;12.77;;;9.23;;
80623;SDS011;70269;44.768;9.600;2023-06-14T12:40:59;11.80;;;8.45;;
80623;SDS011;70269;44.768;9.600;2023-06-14T12:43:25;10.20;;;6.93;;
80623;SDS011;70269;44.768;9.600;2023-06-14T12:45:51;11.30;;;6.97;;
80623;SDS011;70269;44.768;9.600;2023-06-14T12:48:17;10.02;;;6.40;;
80623;SDS011;70269;44.768;9.600;2023-06-14T12:50:42;10.63;;;7.63;;
80623;SDS011;70269;44.768;9.600;2023-06-14T12:53:08;14.05;;;9.40;;
80623;SDS011;70269;44.768;9.600;2023-06-14T12:55:33;10.45;;;8.05;;
80623;SDS011;70269;44.768;9.600;2023-06-14T12:57:59;10.23;;;7.53;;
80623;SDS011;70269;44.768;9.600;2023-06-14T13:00:25;10.85;;;7.28;;
80623;SDS011;70269;44.768;9.600;2023-06-14T13:02:55;10.90;;;7.90;;
80623;SDS011;70269;44.768;9.600;2023-06-14T13:05:23;10.85;;;7.57;;
80623;SDS011;70269;44.768;9.600;2023-06-14T13:07:50;10.75;;;7.68;;
80623;SDS011;70269;44.768;9.600;2023-06-14T13:10:16;9.27;;;6.50;;
80623;SDS011;70269;44.768;9.600;2023-06-14T13:12:42;9.45;;;6.63;;
80623;SDS011;70269;44.768;9.600;2023-06-14T13:15:08;10.30;;;7.55;;
80623;SDS011;70269;44.768;9.600;2023-06-14T13:17:34;10.65;;;7.47;;
80623;SDS011;70269;44.768;9.600;2023-06-14T13:20:06;10.75;;;7.18;;
80623;SDS011;70269;44.768;9.600;2023-06-14T13:22:36;10.45;;;7.38;;
80623;SDS011;70269;44.768;9.600;2023-06-14T13:25:01;9.60;;;6.25;;
80623;SDS011;70269;44.768;9.600;2023-06-14T13:27:28;9.77;;;6.38;;
80623;SDS011;70269;44.768;9.600;2023-06-14T13:29:55;10.48;;;6.47;;
80623;SDS011;70269;44.768;9.600;2023-06-14T13:32:21;10.93;;;7.43;;
80623;SDS011;70269;44.768;9.600;2023-06-14T13:34:47;10.35;;;6.97;;
80623;SDS011;70269;44.768;9.600;2023-06-14T13:37:13;10.43;;;6.97;;
80623;SDS011;70269;44.768;9.600;2023-06-14T13:39:38;11.73;;;6.35;;
80623;SDS011;70269;44.768;9.600;2023-06-14T13:42:04;8.40;;;6.43;;
80623;SDS011;70269;44.768;9.600;2023-06-14T13:44:30;9.65;;;6.50;;
80623;SDS011;70269;44.768;9.600;2023-06-14T13:46:56;10.25;;;6.30;;
80623;SDS011;70269;44.768;9.600;2023-06-14T13:49:21;8.23;;;6.35;;
80623;SDS011;70269;44.768;9.600;2023-06-14T13:51:47;8.50;;;6.63;;
80623;SDS011;70269;44.768;9.600;2023-06-14T13:54:13;9.80;;;6.25;;
80623;SDS011;70269;44.768;9.600;2023-06-14T13:56:42;8.13;;;5.85;;
80623;SDS011;70269;44.768;9.600;2023-06-14T13:59:07;8.63;;;5.30;;
80623;SDS011;70269;44.768;9.600;2023-06-14T14:01:33;8.73;;;6.25;;
80623;SDS011;70269;44.768;9.600;2023-06-14T14:03:59;9.32;;;6.78;;
80623;SDS011;70269;44.768;9.600;2023-06-14T14:06:26;10.65;;;6.75;;
80623;SDS011;70269;44.768;9.600;2023-06-14T14:08:51;8.20;;;6.38;;
80623;SDS011;70269;44.768;9.600;2023-06-14T14:11:18;9.55;;;6.50;;
80623;SDS011;70269;44.768;9.600;2023-06-14T14:13:44;8.90;;;6.38;;
80623;SDS011;70269;44.768;9.600;2023-06-14T14:16:10;9.30;;;6.50;;
80623;SDS011;70269;44.768;9.600;2023-06-14T14:18:35;9.10;;;6.90;;
80623;SDS011;70269;44.768;9.600;2023-06-14T14:21:02;9.15;;;6.40;;
80623;SDS011;70269;44.768;9.600;2023-06-14T14:23:28;9.23;;;6.05;;
80623;SDS011;70269;44.768;9.600;2023-06-14T14:25:54;9.93;;;6.63;;
80623;SDS011;70269;44.768;9.600;2023-06-14T14:28:19;10.90;;;6.70;;
80623;SDS011;70269;44.768;9.600;2023-06-14T14:30:46;9.55;;;6.22;;
80623;SDS011;70269;44.768;9.600;2023-06-14T14:33:13;8.88;;;6.95;;
80623;SDS011;70269;44.768;9.600;2023-06-14T14:35:47;8.77;;;6.78;;
80623;SDS011;70269;44.768;9.600;2023-06-14T14:38:13;10.30;;;6.55;;
80623;SDS011;70269;44.768;9.600;2023-06-14T14:40:41;9.63;;;7.05;;
80623;SDS011;70269;44.768;9.600;2023-06-14T14:43:07;9.25;;;6.85;;
80623;SDS011;70269;44.768;9.600;2023-06-14T14:45:32;8.60;;;6.35;;
80623;SDS011;70269;44.768;9.600;2023-06-14T14:47:58;8.70;;;6.35;;
80623;SDS011;70269;44.768;9.600;2023-06-14T14:50:25;9.70;;;7.05;;
80623;SDS011;70269;44.768;9.600;2023-06-14T14:52:51;9.02;;;6.10;;
80623;SDS011;70269;44.768;9.600;2023-06-14T14:55:16;11.73;;;7.00;;
80623;SDS011;70269;44.768;9.600;2023-06-14T14:57:42;8.48;;;6.20;;
80623;SDS011;70269;44.768;9.600;2023-06-14T15:00:08;9.70;;;7.03;;
80623;SDS011;70269;44.768;9.600;2023-06-14T15:02:34;9.13;;;5.95;;
80623;SDS011;70269;44.768;9.600;2023-06-14T15:05:00;7.72;;;5.72;;
80623;SDS011;70269;44.768;9.600;2023-06-14T15:07:29;9.52;;;6.38;;
80623;SDS011;70269;44.768;9.600;2023-06-14T15:09:59;10.68;;;6.35;;
80623;SDS011;70269;44.768;9.600;2023-06-14T15:12:25;10.10;;;7.35;;
80623;SDS011;70269;44.768;9.600;2023-06-14T15:14:51;7.90;;;5.93;;
80623;SDS011;70269;44.768;9.600;2023-06-14T15:17:17;8.57;;;6.40;;
80623;SDS011;70269;44.768;9.600;2023-06-14T15:19:46;9.77;;;6.82;;